sensor_id;sensor_type;location;lat;lon;timestamp;P1;durP1;ratioP1;P2;durP2;ratioP2
67861;SDS011;54665;51.462;6.698;2022-08-19T00:00:18;15.97;;;9.23;;
67861;SDS011;54665;51.462;6.698;2022-08-19T00:02:44;16.55;;;8.90;;
67861;SDS011;54665;51.462;6.698;2022-08-19T00:05:10;15.47;;;9.10;;
67861;SDS011;54665;51.462;6.698;2022-08-19T00:07:37;19.00;;;10.00;;
67861;SDS011;54665;51.462;6.698;2022-08-19T00:10:06;20.27;;;10.00;;
67861;SDS011;54665;51.462;6.698;2022-08-19T00:12:32;17.17;;;9.55;;
67861;SDS011;54665;51.462;6.698;2022-08-19T00:14:59;14.48;;;8.40;;
67861;SDS011;54665;51.462;6.698;2022-08-19T00:17:25;14.70;;;8.63;;
67861;SDS011;54665;51.462;6.698;2022-08-19T00:19:50;16.87;;;9.17;;
67861;SDS011;54665;51.462;6.698;2022-08-19T00:22:16;17.30;;;9.48;;
67861;SDS011;54665;51.462;6.698;2022-08-19T00:24:43;17.30;;;9.87;;
67861;SDS011;54665;51.462;6.698;2022-08-19T00:27:10;17.77;;;9.90;;
67861;SDS011;54665;51.462;6.698;2022-08-19T00:29:37;17.02;;;9.90;;
67861;SDS011;54665;51.462;6.698;2022-08-19T00:32:03;14.50;;;8.90;;
67861;SDS011;54665;51.462;6.698;2022-08-19T00:34:29;18.08;;;10.25;;
67861;SDS011;54665;51.462;6.698;2022-08-19T00:36:56;17.53;;;9.83;;
67861;SDS011;54665;51.462;6.698;2022-08-19T00:39:21;17.80;;;9.85;;
67861;SDS011;54665;51.462;6.698;2022-08-19T00:41:47;17.50;;;9.80;;
67861;SDS011;54665;51.462;6.698;2022-08-19T00:46:45;17.67;;;10.00;;
67861;SDS011;54665;51.462;6.698;2022-08-19T00:49:16;19.52;;;10.32;;
67861;SDS011;54665;51.462;6.698;2022-08-19T00:51:46;22.90;;;10.57;;
67861;SDS011;54665;51.462;6.698;2022-08-19T00:54:15;19.63;;;10.33;;
67861;SDS011;54665;51.462;6.698;2022-08-19T00:56:41;21.38;;;10.57;;
67861;SDS011;54665;51.462;6.698;2022-08-19T00:59:07;25.88;;;11.25;;
67861;SDS011;54665;51.462;6.698;2022-08-19T01:01:35;22.98;;;11.13;;
67861;SDS011;54665;51.462;6.698;2022-08-19T01:04:02;21.60;;;10.70;;
67861;SDS011;54665;51.462;6.698;2022-08-19T01:06:28;24.80;;;11.70;;
67861;SDS011;54665;51.462;6.698;2022-08-19T01:08:57;22.67;;;10.90;;
67861;SDS011;54665;51.462;6.698;2022-08-19T01:11:23;29.25;;;12.00;;
67861;SDS011;54665;51.462;6.698;2022-08-19T01:13:48;24.63;;;11.13;;
67861;SDS011;54665;51.462;6.698;2022-08-19T01:16:17;24.58;;;12.00;;
67861;SDS011;54665;51.462;6.698;2022-08-19T01:18:45;26.07;;;12.30;;
67861;SDS011;54665;51.462;6.698;2022-08-19T01:21:54;28.48;;;11.95;;
67861;SDS011;54665;51.462;6.698;2022-08-19T01:24:02;25.17;;;12.00;;
67861;SDS011;54665;51.462;6.698;2022-08-19T01:26:28;28.53;;;11.80;;
67861;SDS011;54665;51.462;6.698;2022-08-19T01:28:55;25.70;;;11.77;;
67861;SDS011;54665;51.462;6.698;2022-08-19T01:31:24;26.77;;;12.15;;
67861;SDS011;54665;51.462;6.698;2022-08-19T01:33:56;27.43;;;11.93;;
67861;SDS011;54665;51.462;6.698;2022-08-19T01:36:44;29.35;;;12.35;;
67861;SDS011;54665;51.462;6.698;2022-08-19T01:39:15;22.73;;;10.80;;
67861;SDS011;54665;51.462;6.698;2022-08-19T01:41:42;24.52;;;11.02;;
67861;SDS011;54665;51.462;6.698;2022-08-19T01:44:08;22.10;;;11.37;;
67861;SDS011;54665;51.462;6.698;2022-08-19T01:46:35;25.65;;;11.70;;
67861;SDS011;54665;51.462;6.698;2022-08-19T01:49:01;29.13;;;12.43;;
67861;SDS011;54665;51.462;6.698;2022-08-19T01:51:27;29.30;;;12.43;;
67861;SDS011;54665;51.462;6.698;2022-08-19T01:53:53;26.00;;;11.70;;
67861;SDS011;54665;51.462;6.698;2022-08-19T01:56:19;28.83;;;11.93;;
67861;SDS011;54665;51.462;6.698;2022-08-19T01:58:47;29.63;;;12.43;;
67861;SDS011;54665;51.462;6.698;2022-08-19T02:01:20;27.88;;;12.07;;
67861;SDS011;54665;51.462;6.698;2022-08-19T02:03:45;20.10;;;10.47;;
67861;SDS011;54665;51.462;6.698;2022-08-19T02:06:11;24.20;;;11.83;;
67861;SDS011;54665;51.462;6.698;2022-08-19T02:08:37;27.58;;;11.98;;
67861;SDS011;54665;51.462;6.698;2022-08-19T02:11:04;28.55;;;12.38;;
67861;SDS011;54665;51.462;6.698;2022-08-19T02:13:31;26.13;;;10.90;;
67861;SDS011;54665;51.462;6.698;2022-08-19T02:15:58;27.65;;;12.05;;
67861;SDS011;54665;51.462;6.698;2022-08-19T02:18:24;30.07;;;12.07;;
67861;SDS011;54665;51.462;6.698;2022-08-19T02:20:50;30.33;;;12.25;;
67861;SDS011;54665;51.462;6.698;2022-08-19T02:23:16;35.13;;;13.43;;
67861;SDS011;54665;51.462;6.698;2022-08-19T02:25:43;35.67;;;13.27;;
67861;SDS011;54665;51.462;6.698;2022-08-19T02:28:11;32.60;;;12.45;;
67861;SDS011;54665;51.462;6.698;2022-08-19T02:30:37;35.30;;;13.40;;
67861;SDS011;54665;51.462;6.698;2022-08-19T02:33:03;52.95;;;17.15;;
67861;SDS011;54665;51.462;6.698;2022-08-19T02:35:29;56.17;;;16.90;;
67861;SDS011;54665;51.462;6.698;2022-08-19T02:37:55;52.08;;;16.42;;
67861;SDS011;54665;51.462;6.698;2022-08-19T02:40:39;51.83;;;16.25;;
67861;SDS011;54665;51.462;6.698;2022-08-19T02:43:06;54.57;;;16.40;;
67861;SDS011;54665;51.462;6.698;2022-08-19T02:45:37;50.33;;;16.17;;
67861;SDS011;54665;51.462;6.698;2022-08-19T02:48:04;50.05;;;16.05;;
67861;SDS011;54665;51.462;6.698;2022-08-19T02:50:30;53.60;;;16.38;;
67861;SDS011;54665;51.462;6.698;2022-08-19T02:52:56;50.23;;;16.23;;
67861;SDS011;54665;51.462;6.698;2022-08-19T02:55:21;58.08;;;17.30;;
67861;SDS011;54665;51.462;6.698;2022-08-19T02:57:47;57.27;;;17.80;;
67861;SDS011;54665;51.462;6.698;2022-08-19T03:00:13;65.35;;;18.70;;
67861;SDS011;54665;51.462;6.698;2022-08-19T03:02:39;71.00;;;19.50;;
67861;SDS011;54665;51.462;6.698;2022-08-19T03:05:06;69.57;;;19.05;;
67861;SDS011;54665;51.462;6.698;2022-08-19T03:07:32;67.82;;;18.88;;
67861;SDS011;54665;51.462;6.698;2022-08-19T03:10:00;65.85;;;18.58;;
67861;SDS011;54665;51.462;6.698;2022-08-19T03:12:26;66.33;;;19.00;;
67861;SDS011;54665;51.462;6.698;2022-08-19T03:14:52;67.95;;;19.27;;
67861;SDS011;54665;51.462;6.698;2022-08-19T03:17:18;47.43;;;16.50;;
67861;SDS011;54665;51.462;6.698;2022-08-19T03:19:43;57.35;;;18.13;;
67861;SDS011;54665;51.462;6.698;2022-08-19T03:22:09;65.63;;;19.30;;
67861;SDS011;54665;51.462;6.698;2022-08-19T03:24:34;68.65;;;19.85;;
67861;SDS011;54665;51.462;6.698;2022-08-19T03:27:00;87.10;;;22.07;;
67861;SDS011;54665;51.462;6.698;2022-08-19T03:29:27;85.57;;;22.90;;
67861;SDS011;54665;51.462;6.698;2022-08-19T03:31:53;71.55;;;21.05;;
67861;SDS011;54665;51.462;6.698;2022-08-19T03:34:29;84.47;;;22.48;;
67861;SDS011;54665;51.462;6.698;2022-08-19T03:36:57;84.40;;;23.15;;
67861;SDS011;54665;51.462;6.698;2022-08-19T03:39:26;69.55;;;21.02;;
67861;SDS011;54665;51.462;6.698;2022-08-19T03:41:52;64.97;;;20.83;;
67861;SDS011;54665;51.462;6.698;2022-08-19T03:44:21;74.97;;;22.83;;
67861;SDS011;54665;51.462;6.698;2022-08-19T03:46:53;58.38;;;20.40;;
67861;SDS011;54665;51.462;6.698;2022-08-19T03:49:21;66.55;;;21.65;;
67861;SDS011;54665;51.462;6.698;2022-08-19T03:51:48;68.38;;;21.58;;
67861;SDS011;54665;51.462;6.698;2022-08-19T03:54:18;62.87;;;21.60;;
67861;SDS011;54665;51.462;6.698;2022-08-19T03:56:46;63.55;;;20.77;;
67861;SDS011;54665;51.462;6.698;2022-08-19T03:59:17;59.08;;;19.90;;
67861;SDS011;54665;51.462;6.698;2022-08-19T04:01:45;51.35;;;19.02;;
67861;SDS011;54665;51.462;6.698;2022-08-19T04:04:11;58.37;;;19.77;;
67861;SDS011;54665;51.462;6.698;2022-08-19T04:06:37;57.10;;;19.88;;
67861;SDS011;54665;51.462;6.698;2022-08-19T04:09:04;62.83;;;20.30;;
67861;SDS011;54665;51.462;6.698;2022-08-19T04:11:34;66.10;;;21.00;;
67861;SDS011;54665;51.462;6.698;2022-08-19T04:14:05;71.65;;;21.92;;
67861;SDS011;54665;51.462;6.698;2022-08-19T04:16:30;63.13;;;19.93;;
67861;SDS011;54665;51.462;6.698;2022-08-19T04:18:56;66.75;;;21.35;;
67861;SDS011;54665;51.462;6.698;2022-08-19T04:21:25;56.00;;;19.77;;
67861;SDS011;54665;51.462;6.698;2022-08-19T04:23:52;64.80;;;20.77;;
67861;SDS011;54665;51.462;6.698;2022-08-19T04:26:20;88.35;;;24.13;;
67861;SDS011;54665;51.462;6.698;2022-08-19T04:28:48;89.95;;;26.42;;
67861;SDS011;54665;51.462;6.698;2022-08-19T04:31:15;115.60;;;33.80;;
67861;SDS011;54665;51.462;6.698;2022-08-19T04:33:42;97.40;;;26.87;;
67861;SDS011;54665;51.462;6.698;2022-08-19T04:36:08;76.88;;;22.98;;
67861;SDS011;54665;51.462;6.698;2022-08-19T04:38:41;84.57;;;23.80;;
67861;SDS011;54665;51.462;6.698;2022-08-19T04:41:06;96.60;;;24.85;;
67861;SDS011;54665;51.462;6.698;2022-08-19T04:43:50;88.25;;;24.42;;
67861;SDS011;54665;51.462;6.698;2022-08-19T04:46:16;96.73;;;25.00;;
67861;SDS011;54665;51.462;6.698;2022-08-19T04:48:42;106.23;;;27.13;;
67861;SDS011;54665;51.462;6.698;2022-08-19T04:51:09;122.75;;;28.58;;
67861;SDS011;54665;51.462;6.698;2022-08-19T04:53:38;121.03;;;28.70;;
67861;SDS011;54665;51.462;6.698;2022-08-19T04:56:13;108.50;;;28.15;;
67861;SDS011;54665;51.462;6.698;2022-08-19T04:58:41;112.93;;;27.80;;
67861;SDS011;54665;51.462;6.698;2022-08-19T05:01:17;113.30;;;27.77;;
67861;SDS011;54665;51.462;6.698;2022-08-19T05:03:44;100.25;;;26.83;;
67861;SDS011;54665;51.462;6.698;2022-08-19T05:06:11;119.37;;;28.37;;
67861;SDS011;54665;51.462;6.698;2022-08-19T05:08:40;111.22;;;28.75;;
67861;SDS011;54665;51.462;6.698;2022-08-19T05:11:18;115.10;;;28.30;;
67861;SDS011;54665;51.462;6.698;2022-08-19T05:13:45;125.97;;;29.25;;
67861;SDS011;54665;51.462;6.698;2022-08-19T05:16:12;137.15;;;31.75;;
67861;SDS011;54665;51.462;6.698;2022-08-19T05:18:39;119.10;;;30.87;;
67861;SDS011;54665;51.462;6.698;2022-08-19T05:21:24;112.15;;;29.73;;
67861;SDS011;54665;51.462;6.698;2022-08-19T05:24:09;104.25;;;28.33;;
67861;SDS011;54665;51.462;6.698;2022-08-19T05:26:35;87.95;;;27.23;;
67861;SDS011;54665;51.462;6.698;2022-08-19T05:29:02;90.53;;;28.73;;
67861;SDS011;54665;51.462;6.698;2022-08-19T05:31:28;88.00;;;27.53;;
67861;SDS011;54665;51.462;6.698;2022-08-19T05:33:54;85.50;;;27.83;;
67861;SDS011;54665;51.462;6.698;2022-08-19T05:36:21;76.80;;;25.83;;
67861;SDS011;54665;51.462;6.698;2022-08-19T05:38:46;74.00;;;26.63;;
67861;SDS011;54665;51.462;6.698;2022-08-19T05:41:13;73.93;;;26.23;;
67861;SDS011;54665;51.462;6.698;2022-08-19T05:43:40;70.57;;;26.35;;
67861;SDS011;54665;51.462;6.698;2022-08-19T05:46:06;68.45;;;26.33;;
67861;SDS011;54665;51.462;6.698;2022-08-19T05:48:32;65.90;;;25.43;;
67861;SDS011;54665;51.462;6.698;2022-08-19T05:51:02;58.00;;;25.67;;
67861;SDS011;54665;51.462;6.698;2022-08-19T05:53:29;59.30;;;26.80;;
67861;SDS011;54665;51.462;6.698;2022-08-19T05:55:54;52.77;;;24.93;;
67861;SDS011;54665;51.462;6.698;2022-08-19T05:58:20;55.03;;;24.57;;
67861;SDS011;54665;51.462;6.698;2022-08-19T06:00:45;49.95;;;24.05;;
67861;SDS011;54665;51.462;6.698;2022-08-19T06:03:11;54.10;;;24.97;;
67861;SDS011;54665;51.462;6.698;2022-08-19T06:05:36;53.47;;;25.40;;
67861;SDS011;54665;51.462;6.698;2022-08-19T06:08:02;46.63;;;24.20;;
67861;SDS011;54665;51.462;6.698;2022-08-19T06:10:27;48.77;;;23.70;;
67861;SDS011;54665;51.462;6.698;2022-08-19T06:12:53;46.63;;;23.85;;
67861;SDS011;54665;51.462;6.698;2022-08-19T06:15:19;46.90;;;23.00;;
67861;SDS011;54665;51.462;6.698;2022-08-19T06:17:46;46.03;;;24.42;;
67861;SDS011;54665;51.462;6.698;2022-08-19T06:20:13;51.78;;;25.50;;
67861;SDS011;54665;51.462;6.698;2022-08-19T06:22:40;54.45;;;26.27;;
67861;SDS011;54665;51.462;6.698;2022-08-19T06:25:07;51.70;;;26.27;;
67861;SDS011;54665;51.462;6.698;2022-08-19T06:27:34;54.80;;;26.60;;
67861;SDS011;54665;51.462;6.698;2022-08-19T06:30:00;52.97;;;26.75;;
67861;SDS011;54665;51.462;6.698;2022-08-19T06:32:27;55.03;;;27.50;;
67861;SDS011;54665;51.462;6.698;2022-08-19T06:34:52;55.80;;;27.50;;
67861;SDS011;54665;51.462;6.698;2022-08-19T06:37:18;54.23;;;27.67;;
67861;SDS011;54665;51.462;6.698;2022-08-19T06:39:43;54.13;;;27.37;;
67861;SDS011;54665;51.462;6.698;2022-08-19T06:42:10;54.08;;;28.55;;
67861;SDS011;54665;51.462;6.698;2022-08-19T06:44:41;54.75;;;27.98;;
67861;SDS011;54665;51.462;6.698;2022-08-19T06:47:08;53.97;;;27.65;;
67861;SDS011;54665;51.462;6.698;2022-08-19T06:49:36;54.08;;;27.70;;
67861;SDS011;54665;51.462;6.698;2022-08-19T06:52:02;52.57;;;27.30;;
67861;SDS011;54665;51.462;6.698;2022-08-19T06:54:29;53.33;;;26.73;;
67861;SDS011;54665;51.462;6.698;2022-08-19T06:56:55;53.85;;;27.02;;
67861;SDS011;54665;51.462;6.698;2022-08-19T06:59:22;48.80;;;26.00;;
67861;SDS011;54665;51.462;6.698;2022-08-19T07:01:52;44.08;;;25.17;;
67861;SDS011;54665;51.462;6.698;2022-08-19T07:04:21;42.75;;;24.95;;
67861;SDS011;54665;51.462;6.698;2022-08-19T07:06:49;41.95;;;25.05;;
67861;SDS011;54665;51.462;6.698;2022-08-19T07:09:16;39.55;;;24.13;;
67861;SDS011;54665;51.462;6.698;2022-08-19T07:11:44;43.70;;;24.97;;
67861;SDS011;54665;51.462;6.698;2022-08-19T07:14:11;41.95;;;24.92;;
67861;SDS011;54665;51.462;6.698;2022-08-19T07:16:37;41.33;;;25.15;;
67861;SDS011;54665;51.462;6.698;2022-08-19T07:19:02;40.87;;;24.30;;
67861;SDS011;54665;51.462;6.698;2022-08-19T07:21:28;41.93;;;24.47;;
67861;SDS011;54665;51.462;6.698;2022-08-19T07:23:54;38.42;;;23.08;;
67861;SDS011;54665;51.462;6.698;2022-08-19T07:26:25;36.05;;;22.40;;
67861;SDS011;54665;51.462;6.698;2022-08-19T07:28:56;33.38;;;20.85;;
67861;SDS011;54665;51.462;6.698;2022-08-19T07:31:23;35.63;;;20.80;;
67861;SDS011;54665;51.462;6.698;2022-08-19T07:33:51;36.35;;;20.63;;
67861;SDS011;54665;51.462;6.698;2022-08-19T07:36:21;32.00;;;19.27;;
67861;SDS011;54665;51.462;6.698;2022-08-19T07:38:48;33.30;;;20.52;;
67861;SDS011;54665;51.462;6.698;2022-08-19T07:41:19;29.42;;;17.48;;
67861;SDS011;54665;51.462;6.698;2022-08-19T07:43:47;28.40;;;17.40;;
67861;SDS011;54665;51.462;6.698;2022-08-19T07:46:13;26.10;;;16.80;;
67861;SDS011;54665;51.462;6.698;2022-08-19T07:48:39;28.20;;;16.95;;
67861;SDS011;54665;51.462;6.698;2022-08-19T07:51:07;30.35;;;15.73;;
67861;SDS011;54665;51.462;6.698;2022-08-19T07:53:33;26.67;;;15.90;;
67861;SDS011;54665;51.462;6.698;2022-08-19T07:55:59;25.08;;;15.38;;
67861;SDS011;54665;51.462;6.698;2022-08-19T07:58:29;23.48;;;14.48;;
67861;SDS011;54665;51.462;6.698;2022-08-19T08:01:03;22.55;;;13.68;;
67861;SDS011;54665;51.462;6.698;2022-08-19T08:03:29;25.65;;;14.50;;
67861;SDS011;54665;51.462;6.698;2022-08-19T08:06:14;24.33;;;14.60;;
67861;SDS011;54665;51.462;6.698;2022-08-19T08:08:58;26.67;;;15.10;;
67861;SDS011;54665;51.462;6.698;2022-08-19T08:11:37;21.52;;;12.60;;
67861;SDS011;54665;51.462;6.698;2022-08-19T08:14:22;20.85;;;12.90;;
67861;SDS011;54665;51.462;6.698;2022-08-19T08:16:52;20.77;;;12.38;;
67861;SDS011;54665;51.462;6.698;2022-08-19T08:19:19;20.70;;;12.50;;
67861;SDS011;54665;51.462;6.698;2022-08-19T08:21:46;24.80;;;13.82;;
67861;SDS011;54665;51.462;6.698;2022-08-19T08:24:12;19.38;;;11.20;;
67861;SDS011;54665;51.462;6.698;2022-08-19T08:26:38;20.20;;;11.07;;
67861;SDS011;54665;51.462;6.698;2022-08-19T08:29:05;20.13;;;12.13;;
67861;SDS011;54665;51.462;6.698;2022-08-19T08:31:35;25.40;;;14.80;;
67861;SDS011;54665;51.462;6.698;2022-08-19T08:34:01;27.85;;;15.15;;
67861;SDS011;54665;51.462;6.698;2022-08-19T08:36:27;24.87;;;14.50;;
67861;SDS011;54665;51.462;6.698;2022-08-19T08:38:52;26.43;;;14.13;;
67861;SDS011;54665;51.462;6.698;2022-08-19T08:44:23;28.07;;;14.53;;
67861;SDS011;54665;51.462;6.698;2022-08-19T08:47:11;22.88;;;13.98;;
67861;SDS011;54665;51.462;6.698;2022-08-19T08:54:46;22.55;;;14.15;;
67861;SDS011;54665;51.462;6.698;2022-08-19T08:57:18;26.57;;;13.70;;
67861;SDS011;54665;51.462;6.698;2022-08-19T08:59:51;19.80;;;12.35;;
67861;SDS011;54665;51.462;6.698;2022-08-19T09:02:19;22.08;;;13.10;;
67861;SDS011;54665;51.462;6.698;2022-08-19T09:04:45;22.43;;;14.57;;
67861;SDS011;54665;51.462;6.698;2022-08-19T09:10:10;25.75;;;14.52;;
67861;SDS011;54665;51.462;6.698;2022-08-19T09:13:02;26.05;;;15.93;;
67861;SDS011;54665;51.462;6.698;2022-08-19T09:15:34;29.73;;;15.97;;
67861;SDS011;54665;51.462;6.698;2022-08-19T09:18:05;27.00;;;15.07;;
67861;SDS011;54665;51.462;6.698;2022-08-19T09:20:31;23.10;;;14.40;;
67861;SDS011;54665;51.462;6.698;2022-08-19T09:22:57;22.90;;;13.85;;
67861;SDS011;54665;51.462;6.698;2022-08-19T09:25:23;22.20;;;13.90;;
67861;SDS011;54665;51.462;6.698;2022-08-19T09:27:50;21.95;;;14.27;;
67861;SDS011;54665;51.462;6.698;2022-08-19T09:30:23;24.58;;;14.30;;
67861;SDS011;54665;51.462;6.698;2022-08-19T09:32:53;21.13;;;12.23;;
67861;SDS011;54665;51.462;6.698;2022-08-19T09:35:20;23.42;;;13.38;;
67861;SDS011;54665;51.462;6.698;2022-08-19T09:37:47;24.65;;;14.00;;
67861;SDS011;54665;51.462;6.698;2022-08-19T09:40:15;22.77;;;14.15;;
67861;SDS011;54665;51.462;6.698;2022-08-19T09:42:42;23.55;;;14.00;;
67861;SDS011;54665;51.462;6.698;2022-08-19T09:45:08;22.30;;;13.83;;
67861;SDS011;54665;51.462;6.698;2022-08-19T09:47:34;25.08;;;14.93;;
67861;SDS011;54665;51.462;6.698;2022-08-19T09:50:06;26.58;;;16.23;;
67861;SDS011;54665;51.462;6.698;2022-08-19T09:52:33;25.67;;;15.23;;
67861;SDS011;54665;51.462;6.698;2022-08-19T09:55:02;22.83;;;13.50;;
67861;SDS011;54665;51.462;6.698;2022-08-19T09:57:29;23.97;;;13.00;;
67861;SDS011;54665;51.462;6.698;2022-08-19T09:59:54;24.13;;;14.02;;
67861;SDS011;54665;51.462;6.698;2022-08-19T10:02:20;22.63;;;13.80;;
67861;SDS011;54665;51.462;6.698;2022-08-19T10:04:45;24.87;;;14.17;;
67861;SDS011;54665;51.462;6.698;2022-08-19T10:07:29;22.65;;;14.35;;
67861;SDS011;54665;51.462;6.698;2022-08-19T10:09:55;23.77;;;14.20;;
67861;SDS011;54665;51.462;6.698;2022-08-19T10:12:21;23.00;;;13.70;;
67861;SDS011;54665;51.462;6.698;2022-08-19T10:14:47;20.92;;;13.25;;
67861;SDS011;54665;51.462;6.698;2022-08-19T10:17:13;19.93;;;12.80;;
67861;SDS011;54665;51.462;6.698;2022-08-19T10:19:39;22.20;;;12.73;;
67861;SDS011;54665;51.462;6.698;2022-08-19T10:22:06;21.77;;;13.23;;
67861;SDS011;54665;51.462;6.698;2022-08-19T10:24:32;20.08;;;12.43;;
67861;SDS011;54665;51.462;6.698;2022-08-19T10:27:01;19.97;;;12.93;;
67861;SDS011;54665;51.462;6.698;2022-08-19T10:29:30;18.67;;;12.50;;
67861;SDS011;54665;51.462;6.698;2022-08-19T10:32:02;16.83;;;10.98;;
67861;SDS011;54665;51.462;6.698;2022-08-19T10:34:30;22.45;;;11.60;;
67861;SDS011;54665;51.462;6.698;2022-08-19T10:36:56;18.23;;;11.67;;
67861;SDS011;54665;51.462;6.698;2022-08-19T10:39:22;17.98;;;10.30;;
67861;SDS011;54665;51.462;6.698;2022-08-19T10:41:54;17.52;;;9.38;;
67861;SDS011;54665;51.462;6.698;2022-08-19T10:44:21;16.17;;;9.65;;
67861;SDS011;54665;51.462;6.698;2022-08-19T10:46:48;18.00;;;9.75;;
67861;SDS011;54665;51.462;6.698;2022-08-19T10:49:13;14.57;;;9.30;;
67861;SDS011;54665;51.462;6.698;2022-08-19T10:51:39;15.10;;;9.57;;
67861;SDS011;54665;51.462;6.698;2022-08-19T10:54:24;16.27;;;9.20;;
67861;SDS011;54665;51.462;6.698;2022-08-19T10:57:10;17.67;;;10.07;;
67861;SDS011;54665;51.462;6.698;2022-08-19T10:59:36;15.32;;;9.63;;
67861;SDS011;54665;51.462;6.698;2022-08-19T11:02:04;15.88;;;9.70;;
67861;SDS011;54665;51.462;6.698;2022-08-19T11:04:31;15.23;;;8.43;;
67861;SDS011;54665;51.462;6.698;2022-08-19T11:06:58;14.63;;;9.02;;
67861;SDS011;54665;51.462;6.698;2022-08-19T11:09:24;14.35;;;8.90;;
67861;SDS011;54665;51.462;6.698;2022-08-19T11:11:52;13.93;;;8.50;;
67861;SDS011;54665;51.462;6.698;2022-08-19T11:14:18;13.13;;;9.10;;
67861;SDS011;54665;51.462;6.698;2022-08-19T11:16:45;12.40;;;8.10;;
67861;SDS011;54665;51.462;6.698;2022-08-19T11:19:11;13.57;;;8.15;;
67861;SDS011;54665;51.462;6.698;2022-08-19T11:21:43;13.17;;;8.37;;
67861;SDS011;54665;51.462;6.698;2022-08-19T11:24:17;11.93;;;7.65;;
67861;SDS011;54665;51.462;6.698;2022-08-19T11:26:48;8.93;;;6.50;;
67861;SDS011;54665;51.462;6.698;2022-08-19T11:29:15;13.50;;;7.20;;
67861;SDS011;54665;51.462;6.698;2022-08-19T11:31:44;13.38;;;7.72;;
67861;SDS011;54665;51.462;6.698;2022-08-19T11:34:12;8.87;;;6.50;;
67861;SDS011;54665;51.462;6.698;2022-08-19T11:36:42;11.07;;;7.20;;
67861;SDS011;54665;51.462;6.698;2022-08-19T11:39:11;12.43;;;6.90;;
67861;SDS011;54665;51.462;6.698;2022-08-19T11:41:38;9.65;;;7.15;;
67861;SDS011;54665;51.462;6.698;2022-08-19T11:44:03;10.50;;;7.13;;
67861;SDS011;54665;51.462;6.698;2022-08-19T11:46:30;11.68;;;7.50;;
67861;SDS011;54665;51.462;6.698;2022-08-19T11:48:57;12.32;;;7.82;;
67861;SDS011;54665;51.462;6.698;2022-08-19T11:51:24;13.20;;;8.30;;
67861;SDS011;54665;51.462;6.698;2022-08-19T11:53:51;10.35;;;6.70;;
67861;SDS011;54665;51.462;6.698;2022-08-19T11:56:18;10.37;;;7.57;;
67861;SDS011;54665;51.462;6.698;2022-08-19T11:58:44;11.90;;;7.18;;
67861;SDS011;54665;51.462;6.698;2022-08-19T12:01:13;9.82;;;7.15;;
67861;SDS011;54665;51.462;6.698;2022-08-19T12:03:41;9.20;;;7.07;;
67861;SDS011;54665;51.462;6.698;2022-08-19T12:06:08;9.97;;;6.60;;
67861;SDS011;54665;51.462;6.698;2022-08-19T12:08:37;10.30;;;6.32;;
67861;SDS011;54665;51.462;6.698;2022-08-19T12:11:03;9.13;;;6.20;;
67861;SDS011;54665;51.462;6.698;2022-08-19T12:13:30;8.35;;;5.85;;
67861;SDS011;54665;51.462;6.698;2022-08-19T12:15:56;10.37;;;6.40;;
67861;SDS011;54665;51.462;6.698;2022-08-19T12:18:23;8.75;;;6.05;;
67861;SDS011;54665;51.462;6.698;2022-08-19T12:20:52;9.60;;;6.60;;
67861;SDS011;54665;51.462;6.698;2022-08-19T12:23:19;7.57;;;5.45;;
67861;SDS011;54665;51.462;6.698;2022-08-19T12:25:46;8.83;;;5.80;;
67861;SDS011;54665;51.462;6.698;2022-08-19T12:28:20;6.97;;;5.13;;
67861;SDS011;54665;51.462;6.698;2022-08-19T12:30:47;6.25;;;4.60;;
67861;SDS011;54665;51.462;6.698;2022-08-19T12:33:14;6.75;;;4.70;;
67861;SDS011;54665;51.462;6.698;2022-08-19T12:35:43;7.80;;;5.13;;
67861;SDS011;54665;51.462;6.698;2022-08-19T12:38:10;6.88;;;4.82;;
67861;SDS011;54665;51.462;6.698;2022-08-19T12:40:36;6.43;;;4.95;;
67861;SDS011;54665;51.462;6.698;2022-08-19T12:43:02;6.97;;;5.07;;
67861;SDS011;54665;51.462;6.698;2022-08-19T12:45:28;9.30;;;5.50;;
67861;SDS011;54665;51.462;6.698;2022-08-19T12:47:53;7.28;;;5.38;;
67861;SDS011;54665;51.462;6.698;2022-08-19T12:50:19;6.73;;;4.70;;
67861;SDS011;54665;51.462;6.698;2022-08-19T12:52:46;7.13;;;4.55;;
67861;SDS011;54665;51.462;6.698;2022-08-19T12:55:13;7.53;;;5.25;;
67861;SDS011;54665;51.462;6.698;2022-08-19T12:57:39;8.37;;;4.87;;
67861;SDS011;54665;51.462;6.698;2022-08-19T13:00:06;8.23;;;5.18;;
67861;SDS011;54665;51.462;6.698;2022-08-19T13:02:38;6.43;;;5.20;;
67861;SDS011;54665;51.462;6.698;2022-08-19T13:05:09;8.17;;;5.13;;
67861;SDS011;54665;51.462;6.698;2022-08-19T13:07:37;7.35;;;5.03;;
67861;SDS011;54665;51.462;6.698;2022-08-19T13:10:04;8.70;;;5.47;;
67861;SDS011;54665;51.462;6.698;2022-08-19T13:12:30;7.75;;;5.47;;
67861;SDS011;54665;51.462;6.698;2022-08-19T13:14:56;9.67;;;5.77;;
67861;SDS011;54665;51.462;6.698;2022-08-19T13:17:21;7.37;;;5.93;;
67861;SDS011;54665;51.462;6.698;2022-08-19T13:19:48;7.88;;;5.40;;
67861;SDS011;54665;51.462;6.698;2022-08-19T13:22:13;6.50;;;5.28;;
67861;SDS011;54665;51.462;6.698;2022-08-19T13:24:39;7.47;;;5.10;;
67861;SDS011;54665;51.462;6.698;2022-08-19T13:27:04;8.30;;;5.10;;
67861;SDS011;54665;51.462;6.698;2022-08-19T13:29:30;6.72;;;5.35;;
67861;SDS011;54665;51.462;6.698;2022-08-19T13:32:14;7.22;;;5.25;;
67861;SDS011;54665;51.462;6.698;2022-08-19T13:34:58;6.10;;;4.85;;
67861;SDS011;54665;51.462;6.698;2022-08-19T13:37:24;6.77;;;5.07;;
67861;SDS011;54665;51.462;6.698;2022-08-19T13:40:28;8.20;;;5.50;;
67861;SDS011;54665;51.462;6.698;2022-08-19T13:42:55;8.57;;;5.53;;
67861;SDS011;54665;51.462;6.698;2022-08-19T13:45:21;7.13;;;5.82;;
67861;SDS011;54665;51.462;6.698;2022-08-19T13:47:49;8.75;;;6.70;;
67861;SDS011;54665;51.462;6.698;2022-08-19T13:50:18;7.73;;;6.70;;
67861;SDS011;54665;51.462;6.698;2022-08-19T13:52:47;9.15;;;7.00;;
67861;SDS011;54665;51.462;6.698;2022-08-19T13:55:16;10.43;;;7.22;;
67861;SDS011;54665;51.462;6.698;2022-08-19T13:57:41;9.17;;;6.50;;
67861;SDS011;54665;51.462;6.698;2022-08-19T14:00:08;9.18;;;6.80;;
67861;SDS011;54665;51.462;6.698;2022-08-19T14:02:37;9.93;;;7.03;;
67861;SDS011;54665;51.462;6.698;2022-08-19T14:05:04;9.75;;;7.80;;
67861;SDS011;54665;51.462;6.698;2022-08-19T14:07:31;11.88;;;8.13;;
67861;SDS011;54665;51.462;6.698;2022-08-19T14:09:57;12.07;;;8.63;;
67861;SDS011;54665;51.462;6.698;2022-08-19T14:12:22;9.43;;;6.70;;
67861;SDS011;54665;51.462;6.698;2022-08-19T14:14:48;10.53;;;6.50;;
67861;SDS011;54665;51.462;6.698;2022-08-19T14:17:13;9.57;;;6.50;;
67861;SDS011;54665;51.462;6.698;2022-08-19T14:19:40;10.10;;;6.07;;
67861;SDS011;54665;51.462;6.698;2022-08-19T14:22:05;8.73;;;5.78;;
67861;SDS011;54665;51.462;6.698;2022-08-19T14:24:31;7.93;;;5.90;;
67861;SDS011;54665;51.462;6.698;2022-08-19T14:26:59;7.30;;;4.90;;
67861;SDS011;54665;51.462;6.698;2022-08-19T14:29:25;6.07;;;4.80;;
67861;SDS011;54665;51.462;6.698;2022-08-19T14:31:53;6.82;;;4.20;;
67861;SDS011;54665;51.462;6.698;2022-08-19T14:34:19;7.63;;;4.90;;
67861;SDS011;54665;51.462;6.698;2022-08-19T14:36:44;5.63;;;4.50;;
67861;SDS011;54665;51.462;6.698;2022-08-19T14:39:10;4.83;;;3.57;;
67861;SDS011;54665;51.462;6.698;2022-08-19T14:41:36;5.97;;;4.20;;
67861;SDS011;54665;51.462;6.698;2022-08-19T14:44:06;5.45;;;3.30;;
67861;SDS011;54665;51.462;6.698;2022-08-19T14:46:31;7.30;;;4.57;;